sensor_id;sensor_type;location;lat;lon;timestamp;pressure;altitude;pressure_sealevel;temperature;humidity
54600;BME280;40500;51.084;16.958;2023-05-03T00:01:25;101154.02;;;10.85;100.00
54600;BME280;40500;51.084;16.958;2023-05-03T00:03:56;101158.58;;;10.82;100.00
54600;BME280;40500;51.084;16.958;2023-05-03T00:06:26;101160.17;;;10.79;100.00
54600;BME280;40500;51.084;16.958;2023-05-03T00:08:57;101161.42;;;10.76;100.00
54600;BME280;40500;51.084;16.958;2023-05-03T00:11:27;101161.42;;;10.73;100.00
54600;BME280;40500;51.084;16.958;2023-05-03T00:13:57;101163.02;;;10.70;100.00
54600;BME280;40500;51.084;16.958;2023-05-03T00:16:29;101161.80;;;10.67;100.00
54600;BME280;40500;51.084;16.958;2023-05-03T00:19:00;101166.20;;;10.62;100.00
54600;BME280;40500;51.084;16.958;2023-05-03T00:21:30;101166.21;;;10.58;100.00
54600;BME280;40500;51.084;16.958;2023-05-03T00:24:01;101169.38;;;10.56;100.00
54600;BME280;40500;51.084;16.958;2023-05-03T00:26:32;101172.55;;;10.54;100.00
54600;BME280;40500;51.084;16.958;2023-05-03T00:29:02;101175.52;;;10.52;100.00
54600;BME280;40500;51.084;16.958;2023-05-03T00:31:32;101167.13;;;10.50;100.00
54600;BME280;40500;51.084;16.958;2023-05-03T00:34:03;101170.28;;;10.46;100.00
54600;BME280;40500;51.084;16.958;2023-05-03T00:36:34;101174.85;;;10.45;100.00
54600;BME280;40500;51.084;16.958;2023-05-03T00:39:05;101181.34;;;10.42;100.00
54600;BME280;40500;51.084;16.958;2023-05-03T00:41:35;101181.50;;;10.41;100.00
54600;BME280;40500;51.084;16.958;2023-05-03T00:44:06;101182.39;;;10.38;100.00
54600;BME280;40500;51.084;16.958;2023-05-03T00:46:36;101179.06;;;10.36;100.00
54600;BME280;40500;51.084;16.958;2023-05-03T00:49:07;101186.25;;;10.35;100.00
54600;BME280;40500;51.084;16.958;2023-05-03T00:51:38;101185.02;;;10.33;100.00
54600;BME280;40500;51.084;16.958;2023-05-03T00:54:11;101184.85;;;10.32;100.00
54600;BME280;40500;51.084;16.958;2023-05-03T00:56:41;101178.71;;;10.32;100.00
54600;BME280;40500;51.084;16.958;2023-05-03T00:59:20;101182.22;;;10.30;100.00
54600;BME280;40500;51.084;16.958;2023-05-03T01:01:51;101183.78;;;10.28;100.00
54600;BME280;40500;51.084;16.958;2023-05-03T01:04:22;101184.66;;;10.26;100.00
54600;BME280;40500;51.084;16.958;2023-05-03T01:07:01;101183.61;;;10.24;100.00
54600;BME280;40500;51.084;16.958;2023-05-03T01:09:35;101189.39;;;10.24;100.00
54600;BME280;40500;51.084;16.958;2023-05-03T01:12:17;101188.52;;;10.23;100.00
54600;BME280;40500;51.084;16.958;2023-05-03T01:14:57;101197.62;;;10.24;100.00
54600;BME280;40500;51.084;16.958;2023-05-03T01:17:37;101203.21;;;10.26;100.00
54600;BME280;40500;51.084;16.958;2023-05-03T01:20:12;101204.61;;;10.26;100.00
54600;BME280;40500;51.084;16.958;2023-05-03T01:22:48;101205.31;;;10.27;100.00
54600;BME280;40500;51.084;16.958;2023-05-03T01:25:20;101210.03;;;10.26;100.00
54600;BME280;40500;51.084;16.958;2023-05-03T01:27:51;101204.45;;;10.24;100.00
54600;BME280;40500;51.084;16.958;2023-05-03T01:30:24;101210.75;;;10.24;100.00
54600;BME280;40500;51.084;16.958;2023-05-03T01:33:03;101211.80;;;10.23;100.00
54600;BME280;40500;51.084;16.958;2023-05-03T01:35:40;101211.11;;;10.21;100.00
54600;BME280;40500;51.084;16.958;2023-05-03T01:38:13;101213.56;;;10.20;100.00
54600;BME280;40500;51.084;16.958;2023-05-03T01:40:49;101213.55;;;10.16;100.00
54600;BME280;40500;51.084;16.958;2023-05-03T01:43:21;101214.08;;;10.13;100.00
54600;BME280;40500;51.084;16.958;2023-05-03T01:45:52;101209.72;;;10.10;100.00
54600;BME280;40500;51.084;16.958;2023-05-03T01:48:23;101218.11;;;10.11;100.00
54600;BME280;40500;51.084;16.958;2023-05-03T01:50:57;101218.28;;;10.09;100.00
54600;BME280;40500;51.084;16.958;2023-05-03T01:53:28;101221.78;;;10.07;100.00
54600;BME280;40500;51.084;16.958;2023-05-03T01:55:58;101225.47;;;10.05;100.00
54600;BME280;40500;51.084;16.958;2023-05-03T01:58:29;101224.78;;;9.99;100.00
54600;BME280;40500;51.084;16.958;2023-05-03T02:01:00;101228.80;;;9.93;100.00
54600;BME280;40500;51.084;16.958;2023-05-03T02:03:31;101232.64;;;9.88;100.00
54600;BME280;40500;51.084;16.958;2023-05-03T02:06:01;101234.91;;;9.85;100.00
54600;BME280;40500;51.084;16.958;2023-05-03T02:08:32;101240.50;;;9.82;100.00
54600;BME280;40500;51.084;16.958;2023-05-03T02:11:02;101238.40;;;9.77;100.00
54600;BME280;40500;51.084;16.958;2023-05-03T02:13:33;101238.40;;;9.71;100.00
54600;BME280;40500;51.084;16.958;2023-05-03T02:16:04;101243.30;;;9.66;100.00
54600;BME280;40500;51.084;16.958;2023-05-03T02:18:34;101239.09;;;9.62;100.00
54600;BME280;40500;51.084;16.958;2023-05-03T02:21:05;101236.11;;;9.57;100.00
54600;BME280;40500;51.084;16.958;2023-05-03T02:23:37;101235.59;;;9.53;100.00
54600;BME280;40500;51.084;16.958;2023-05-03T02:26:08;101237.14;;;9.48;100.00
54600;BME280;40500;51.084;16.958;2023-05-03T02:28:40;101239.06;;;9.44;100.00
54600;BME280;40500;51.084;16.958;2023-05-03T02:31:10;101235.55;;;9.41;100.00
54600;BME280;40500;51.084;16.958;2023-05-03T02:33:42;101235.36;;;9.38;100.00
54600;BME280;40500;51.084;16.958;2023-05-03T02:36:13;101238.85;;;9.35;100.00
54600;BME280;40500;51.084;16.958;2023-05-03T02:38:45;101233.09;;;9.32;100.00
54600;BME280;40500;51.084;16.958;2023-05-03T02:41:20;101236.91;;;9.26;100.00
54600;BME280;40500;51.084;16.958;2023-05-03T02:43:52;101240.58;;;9.21;100.00
54600;BME280;40500;51.084;16.958;2023-05-03T02:46:23;101241.60;;;9.16;100.00
54600;BME280;40500;51.084;16.958;2023-05-03T02:48:54;101248.56;;;9.08;100.00
54600;BME280;40500;51.084;16.958;2023-05-03T02:51:25;101247.48;;;9.01;100.00
54600;BME280;40500;51.084;16.958;2023-05-03T02:53:57;101249.89;;;8.93;100.00
54600;BME280;40500;51.084;16.958;2023-05-03T02:56:28;101250.90;;;8.83;100.00
54600;BME280;40500;51.084;16.958;2023-05-03T02:58:58;101254.34;;;8.75;100.00
54600;BME280;40500;51.084;16.958;2023-05-03T03:01:29;101253.59;;;8.65;100.00
54600;BME280;40500;51.084;16.958;2023-05-03T03:04:01;101253.88;;;8.55;100.00
54600;BME280;40500;51.084;16.958;2023-05-03T03:06:31;101253.98;;;8.44;100.00
54600;BME280;40500;51.084;16.958;2023-05-03T03:09:04;101257.05;;;8.37;100.00
54600;BME280;40500;51.084;16.958;2023-05-03T03:11:36;101257.55;;;8.33;100.00
54600;BME280;40500;51.084;16.958;2023-05-03T03:14:09;101259.80;;;8.31;100.00
54600;BME280;40500;51.084;16.958;2023-05-03T03:16:40;101266.98;;;8.33;100.00
54600;BME280;40500;51.084;16.958;2023-05-03T03:19:10;101272.56;;;8.36;100.00
54600;BME280;40500;51.084;16.958;2023-05-03T03:21:42;101274.30;;;8.32;100.00
54600;BME280;40500;51.084;16.958;2023-05-03T03:24:13;101275.31;;;8.29;100.00
54600;BME280;40500;51.084;16.958;2023-05-03T03:26:44;101274.95;;;8.25;100.00
54600;BME280;40500;51.084;16.958;2023-05-03T03:29:14;101277.69;;;8.21;100.00
54600;BME280;40500;51.084;16.958;2023-05-03T03:31:45;101280.11;;;8.17;100.00
54600;BME280;40500;51.084;16.958;2023-05-03T03:34:16;101276.77;;;8.12;100.00
54600;BME280;40500;51.084;16.958;2023-05-03T03:36:47;101274.10;;;8.07;100.00
54600;BME280;40500;51.084;16.958;2023-05-03T03:39:18;101278.77;;;8.02;100.00
54600;BME280;40500;51.084;16.958;2023-05-03T03:41:49;101277.52;;;7.99;100.00
54600;BME280;40500;51.084;16.958;2023-05-03T03:44:20;101282.02;;;7.94;100.00
54600;BME280;40500;51.084;16.958;2023-05-03T03:46:51;101275.34;;;7.90;100.00
54600;BME280;40500;51.084;16.958;2023-05-03T03:49:21;101278.11;;;7.86;100.00
54600;BME280;40500;51.084;16.958;2023-05-03T03:51:52;101281.19;;;7.80;100.00
54600;BME280;40500;51.084;16.958;2023-05-03T03:54:22;101284.96;;;7.73;100.00
54600;BME280;40500;51.084;16.958;2023-05-03T03:56:53;101286.13;;;7.69;100.00
54600;BME280;40500;51.084;16.958;2023-05-03T03:59:24;101289.05;;;7.64;100.00
54600;BME280;40500;51.084;16.958;2023-05-03T04:01:55;101287.92;;;7.58;100.00
54600;BME280;40500;51.084;16.958;2023-05-03T04:04:26;101289.98;;;7.54;100.00
54600;BME280;40500;51.084;16.958;2023-05-03T04:06:57;101299.36;;;7.51;100.00
54600;BME280;40500;51.084;16.958;2023-05-03T04:09:28;101299.54;;;7.50;100.00
54600;BME280;40500;51.084;16.958;2023-05-03T04:11:59;101303.02;;;7.51;100.00
54600;BME280;40500;51.084;16.958;2023-05-03T04:14:32;101307.57;;;7.52;100.00
54600;BME280;40500;51.084;16.958;2023-05-03T04:17:02;101315.08;;;7.54;100.00
54600;BME280;40500;51.084;16.958;2023-05-03T04:19:33;101313.87;;;7.55;100.00
54600;BME280;40500;51.084;16.958;2023-05-03T04:22:04;101317.77;;;7.61;100.00
54600;BME280;40500;51.084;16.958;2023-05-03T04:24:35;101316.30;;;7.70;100.00
54600;BME280;40500;51.084;16.958;2023-05-03T04:27:08;101318.67;;;7.81;100.00
54600;BME280;40500;51.084;16.958;2023-05-03T04:29:40;101324.09;;;7.81;100.00
54600;BME280;40500;51.084;16.958;2023-05-03T04:32:11;101327.89;;;7.78;100.00
54600;BME280;40500;51.084;16.958;2023-05-03T04:34:43;101329.11;;;7.78;100.00
54600;BME280;40500;51.084;16.958;2023-05-03T04:37:17;101328.57;;;7.76;100.00
54600;BME280;40500;51.084;16.958;2023-05-03T04:39:48;101330.14;;;7.77;100.00
54600;BME280;40500;51.084;16.958;2023-05-03T04:42:20;101329.28;;;7.78;100.00
54600;BME280;40500;51.084;16.958;2023-05-03T04:44:50;101330.88;;;7.79;100.00
54600;BME280;40500;51.084;16.958;2023-05-03T04:47:21;101335.58;;;7.80;100.00
54600;BME280;40500;51.084;16.958;2023-05-03T04:49:54;101334.90;;;7.80;100.00
54600;BME280;40500;51.084;16.958;2023-05-03T04:52:24;101338.27;;;7.87;100.00
54600;BME280;40500;51.084;16.958;2023-05-03T04:54:55;101344.12;;;7.97;100.00
54600;BME280;40500;51.084;16.958;2023-05-03T04:57:26;101344.93;;;8.09;100.00
54600;BME280;40500;51.084;16.958;2023-05-03T04:59:56;101341.52;;;8.18;100.00
54600;BME280;40500;51.084;16.958;2023-05-03T05:02:27;101345.05;;;8.21;100.00
54600;BME280;40500;51.084;16.958;2023-05-03T05:04:59;101348.94;;;8.25;100.00
54600;BME280;40500;51.084;16.958;2023-05-03T05:07:29;101348.23;;;8.26;100.00
54600;BME280;40500;51.084;16.958;2023-05-03T05:10:01;101348.07;;;8.26;100.00
54600;BME280;40500;51.084;16.958;2023-05-03T05:12:32;101348.54;;;8.21;100.00
54600;BME280;40500;51.084;16.958;2023-05-03T05:15:05;101352.17;;;8.17;100.00
54600;BME280;40500;51.084;16.958;2023-05-03T05:17:37;101354.61;;;8.18;100.00
54600;BME280;40500;51.084;16.958;2023-05-03T05:20:10;101353.93;;;8.20;100.00
54600;BME280;40500;51.084;16.958;2023-05-03T05:22:44;101357.45;;;8.21;100.00
54600;BME280;40500;51.084;16.958;2023-05-03T05:25:15;101360.76;;;8.22;100.00
54600;BME280;40500;51.084;16.958;2023-05-03T05:27:46;101365.52;;;8.26;100.00
54600;BME280;40500;51.084;16.958;2023-05-03T05:30:17;101366.09;;;8.33;100.00
54600;BME280;40500;51.084;16.958;2023-05-03T05:32:48;101367.41;;;8.41;100.00
54600;BME280;40500;51.084;16.958;2023-05-03T05:35:18;101366.61;;;8.48;100.00
54600;BME280;40500;51.084;16.958;2023-05-03T05:37:49;101366.14;;;8.56;100.00
54600;BME280;40500;51.084;16.958;2023-05-03T05:40:20;101370.89;;;8.61;100.00
54600;BME280;40500;51.084;16.958;2023-05-03T05:42:54;101371.27;;;8.65;100.00
54600;BME280;40500;51.084;16.958;2023-05-03T05:45:25;101372.71;;;8.70;100.00
54600;BME280;40500;51.084;16.958;2023-05-03T05:47:57;101378.87;;;8.78;100.00
54600;BME280;40500;51.084;16.958;2023-05-03T05:50:27;101382.45;;;8.89;100.00
54600;BME280;40500;51.084;16.958;2023-05-03T05:53:02;101384.92;;;8.96;100.00
54600;BME280;40500;51.084;16.958;2023-05-03T05:55:36;101386.23;;;9.07;100.00
54600;BME280;40500;51.084;16.958;2023-05-03T05:58:07;101390.32;;;9.19;100.00
54600;BME280;40500;51.084;16.958;2023-05-03T06:00:44;101397.74;;;9.34;100.00
54600;BME280;40500;51.084;16.958;2023-05-03T06:03:17;101400.92;;;9.39;100.00
54600;BME280;40500;51.084;16.958;2023-05-03T06:05:50;101403.02;;;9.41;100.00
54600;BME280;40500;51.084;16.958;2023-05-03T06:08:21;101406.33;;;9.40;100.00
54600;BME280;40500;51.084;16.958;2023-05-03T06:10:52;101414.39;;;9.40;100.00
54600;BME280;40500;51.084;16.958;2023-05-03T06:13:23;101413.50;;;9.38;100.00
54600;BME280;40500;51.084;16.958;2023-05-03T06:15:54;101417.16;;;9.35;100.00
54600;BME280;40500;51.084;16.958;2023-05-03T06:18:25;101420.11;;;9.32;100.00
54600;BME280;40500;51.084;16.958;2023-05-03T06:20:55;101419.59;;;9.32;100.00
54600;BME280;40500;51.084;16.958;2023-05-03T06:23:26;101423.98;;;9.38;100.00
54600;BME280;40500;51.084;16.958;2023-05-03T06:25:58;101430.50;;;9.46;100.00
54600;BME280;40500;51.084;16.958;2023-05-03T06:28:28;101427.73;;;9.54;100.00
54600;BME280;40500;51.084;16.958;2023-05-03T06:30:59;101426.55;;;9.64;100.00
54600;BME280;40500;51.084;16.958;2023-05-03T06:33:31;101429.92;;;9.75;100.00
54600;BME280;40500;51.084;16.958;2023-05-03T06:36:01;101429.10;;;9.86;100.00
54600;BME280;40500;51.084;16.958;2023-05-03T06:38:32;101429.14;;;9.99;100.00
54600;BME280;40500;51.084;16.958;2023-05-03T06:41:02;101432.31;;;10.07;100.00
54600;BME280;40500;51.084;16.958;2023-05-03T06:43:33;101430.75;;;10.15;100.00
54600;BME280;40500;51.084;16.958;2023-05-03T06:46:06;101422.05;;;10.28;100.00
54600;BME280;40500;51.084;16.958;2023-05-03T06:48:37;101421.04;;;10.43;100.00
54600;BME280;40500;51.084;16.958;2023-05-03T06:51:07;101418.94;;;10.53;100.00
54600;BME280;40500;51.084;16.958;2023-05-03T06:53:38;101420.87;;;10.60;100.00
54600;BME280;40500;51.084;16.958;2023-05-03T06:56:08;101418.95;;;10.63;100.00
54600;BME280;40500;51.084;16.958;2023-05-03T06:58:39;101426.48;;;10.70;100.00
54600;BME280;40500;51.084;16.958;2023-05-03T07:01:09;101426.13;;;10.73;100.00
54600;BME280;40500;51.084;16.958;2023-05-03T07:03:40;101428.59;;;10.72;100.00
54600;BME280;40500;51.084;16.958;2023-05-03T07:06:10;101424.90;;;10.62;100.00
54600;BME280;40500;51.084;16.958;2023-05-03T07:08:41;101431.20;;;10.58;100.00
54600;BME280;40500;51.084;16.958;2023-05-03T07:11:11;101432.77;;;10.59;100.00
54600;BME280;40500;51.084;16.958;2023-05-03T07:13:42;101428.40;;;10.58;100.00
54600;BME280;40500;51.084;16.958;2023-05-03T07:16:12;101430.16;;;10.61;100.00
54600;BME280;40500;51.084;16.958;2023-05-03T07:18:42;101426.66;;;10.74;100.00
54600;BME280;40500;51.084;16.958;2023-05-03T07:21:13;101425.27;;;10.83;100.00
54600;BME280;40500;51.084;16.958;2023-05-03T07:23:43;101424.02;;;10.85;100.00
54600;BME280;40500;51.084;16.958;2023-05-03T07:26:14;101419.11;;;10.87;100.00
54600;BME280;40500;51.084;16.958;2023-05-03T07:28:44;101412.45;;;10.91;100.00
54600;BME280;40500;51.084;16.958;2023-05-03T07:31:15;101409.64;;;10.90;100.00
54600;BME280;40500;51.084;16.958;2023-05-03T07:33:45;101412.64;;;10.94;100.00
54600;BME280;40500;51.084;16.958;2023-05-03T07:36:16;101404.02;;;11.07;100.00
54600;BME280;40500;51.084;16.958;2023-05-03T07:38:46;101407.13;;;11.22;100.00
54600;BME280;40500;51.084;16.958;2023-05-03T07:41:17;101405.88;;;11.33;100.00
54600;BME280;40500;51.084;16.958;2023-05-03T07:43:47;101403.05;;;11.38;100.00
54600;BME280;40500;51.084;16.958;2023-05-03T07:46:18;101399.55;;;11.38;100.00
54600;BME280;40500;51.084;16.958;2023-05-03T07:48:48;101403.25;;;11.36;100.00
54600;BME280;40500;51.084;16.958;2023-05-03T07:51:19;101405.89;;;11.30;100.00
54600;BME280;40500;51.084;16.958;2023-05-03T07:53:49;101410.45;;;11.32;100.00
54600;BME280;40500;51.084;16.958;2023-05-03T07:56:20;101411.83;;;11.39;100.00
54600;BME280;40500;51.084;16.958;2023-05-03T07:58:50;101405.09;;;11.58;100.00
54600;BME280;40500;51.084;16.958;2023-05-03T08:01:37;101405.17;;;11.84;100.00
54600;BME280;40500;51.084;16.958;2023-05-03T08:04:08;101399.80;;;12.04;100.00
54600;BME280;40500;51.084;16.958;2023-05-03T08:06:39;101398.35;;;12.13;100.00
54600;BME280;40500;51.084;16.958;2023-05-03T08:09:10;101398.42;;;12.28;100.00
54600;BME280;40500;51.084;16.958;2023-05-03T08:11:42;101389.30;;;12.50;100.00
54600;BME280;40500;51.084;16.958;2023-05-03T08:14:12;101394.38;;;12.53;100.00
54600;BME280;40500;51.084;16.958;2023-05-03T08:16:43;101394.45;;;12.42;100.00
54600;BME280;40500;51.084;16.958;2023-05-03T08:19:13;101399.98;;;12.30;100.00
54600;BME280;40500;51.084;16.958;2023-05-03T08:21:43;101405.02;;;12.14;100.00
54600;BME280;40500;51.084;16.958;2023-05-03T08:24:15;101399.13;;;12.02;100.00
54600;BME280;40500;51.084;16.958;2023-05-03T08:26:45;101405.44;;;12.02;100.00
54600;BME280;40500;51.084;16.958;2023-05-03T08:29:16;101402.61;;;12.07;100.00
54600;BME280;40500;51.084;16.958;2023-05-03T08:31:46;101402.73;;;12.14;100.00
54600;BME280;40500;51.084;16.958;2023-05-03T08:34:17;101409.59;;;12.38;100.00
54600;BME280;40500;51.084;16.958;2023-05-03T08:36:47;101409.77;;;12.62;100.00
54600;BME280;40500;51.084;16.958;2023-05-03T08:39:18;101401.75;;;12.75;100.00
54600;BME280;40500;51.084;16.958;2023-05-03T08:41:48;101404.30;;;12.84;100.00
54600;BME280;40500;51.084;16.958;2023-05-03T08:44:20;101407.22;;;12.92;100.00
54600;BME280;40500;51.084;16.958;2023-05-03T08:46:51;101409.33;;;12.93;100.00
54600;BME280;40500;51.084;16.958;2023-05-03T08:49:22;101407.48;;;12.84;100.00
54600;BME280;40500;51.084;16.958;2023-05-03T08:51:54;101413.48;;;12.80;100.00
54600;BME280;40500;51.084;16.958;2023-05-03T08:54:26;101412.64;;;12.77;100.00
54600;BME280;40500;51.084;16.958;2023-05-03T08:56:56;101412.23;;;12.83;100.00
54600;BME280;40500;51.084;16.958;2023-05-03T08:59:26;101413.65;;;12.80;100.00
54600;BME280;40500;51.084;16.958;2023-05-03T09:01:57;101418.85;;;12.68;100.00
54600;BME280;40500;51.084;16.958;2023-05-03T09:04:33;101418.52;;;12.67;100.00
54600;BME280;40500;51.084;16.958;2023-05-03T09:07:11;101413.17;;;12.75;100.00
54600;BME280;40500;51.084;16.958;2023-05-03T09:09:44;101412.91;;;12.84;100.00
54600;BME280;40500;51.084;16.958;2023-05-03T09:12:33;101412.05;;;13.01;100.00
54600;BME280;40500;51.084;16.958;2023-05-03T09:15:06;101410.39;;;13.26;100.00
54600;BME280;40500;51.084;16.958;2023-05-03T09:17:37;101408.11;;;13.43;100.00
54600;BME280;40500;51.084;16.958;2023-05-03T09:20:09;101409.08;;;13.52;100.00
54600;BME280;40500;51.084;16.958;2023-05-03T09:22:50;101406.81;;;13.63;100.00
54600;BME280;40500;51.084;16.958;2023-05-03T09:25:21;101403.86;;;13.75;100.00
54600;BME280;40500;51.084;16.958;2023-05-03T09:28:01;101405.52;;;13.83;100.00
54600;BME280;40500;51.084;16.958;2023-05-03T09:30:32;101407.17;;;13.77;100.00
54600;BME280;40500;51.084;16.958;2023-05-03T09:33:03;101409.92;;;13.69;100.00
54600;BME280;40500;51.084;16.958;2023-05-03T09:35:34;101407.20;;;13.47;100.00
54600;BME280;40500;51.084;16.958;2023-05-03T09:38:04;101414.43;;;13.28;100.00
54600;BME280;40500;51.084;16.958;2023-05-03T09:40:46;101409.48;;;13.13;100.00
54600;BME280;40500;51.084;16.958;2023-05-03T09:43:17;101414.48;;;13.04;100.00
54600;BME280;40500;51.084;16.958;2023-05-03T09:45:48;101413.56;;;13.09;100.00
54600;BME280;40500;51.084;16.958;2023-05-03T09:48:19;101411.83;;;13.06;100.00
54600;BME280;40500;51.084;16.958;2023-05-03T09:50:51;101413.44;;;13.02;100.00
54600;BME280;40500;51.084;16.958;2023-05-03T09:53:22;101411.17;;;12.99;100.00
54600;BME280;40500;51.084;16.958;2023-05-03T09:55:54;101408.21;;;12.99;100.00
54600;BME280;40500;51.084;16.958;2023-05-03T09:58:26;101408.34;;;13.02;100.00
54600;BME280;40500;51.084;16.958;2023-05-03T10:00:59;101401.53;;;13.16;100.00
54600;BME280;40500;51.084;16.958;2023-05-03T10:03:39;101400.52;;;13.28;100.00
54600;BME280;40500;51.084;16.958;2023-05-03T10:06:24;101396.73;;;13.40;100.00
54600;BME280;40500;51.084;16.958;2023-05-03T10:09:02;101392.58;;;13.62;100.00
54600;BME280;40500;51.084;16.958;2023-05-03T10:11:37;101389.89;;;13.80;100.00
54600;BME280;40500;51.084;16.958;2023-05-03T10:14:07;101387.77;;;13.92;100.00
54600;BME280;40500;51.084;16.958;2023-05-03T10:16:41;101389.48;;;13.97;100.00
54600;BME280;40500;51.084;16.958;2023-05-03T10:19:15;101396.24;;;13.92;100.00
54600;BME280;40500;51.084;16.958;2023-05-03T10:22:01;101390.71;;;13.84;100.00
54600;BME280;40500;51.084;16.958;2023-05-03T10:24:33;101391.98;;;13.81;100.00
54600;BME280;40500;51.084;16.958;2023-05-03T10:27:06;101390.10;;;13.77;100.00
54600;BME280;40500;51.084;16.958;2023-05-03T10:29:56;101390.34;;;13.72;100.00
54600;BME280;40500;51.084;16.958;2023-05-03T10:32:31;101394.79;;;13.68;100.00
54600;BME280;40500;51.084;16.958;2023-05-03T10:35:03;101390.45;;;13.62;100.00
54600;BME280;40500;51.084;16.958;2023-05-03T10:37:37;101386.29;;;13.59;100.00
54600;BME280;40500;51.084;16.958;2023-05-03T10:40:13;101388.00;;;13.62;100.00
54600;BME280;40500;51.084;16.958;2023-05-03T10:42:50;101391.92;;;13.72;100.00
54600;BME280;40500;51.084;16.958;2023-05-03T10:45:23;101387.42;;;13.93;100.00
54600;BME280;40500;51.084;16.958;2023-05-03T10:48:18;101376.43;;;14.10;100.00
54600;BME280;40500;51.084;16.958;2023-05-03T10:50:51;101376.37;;;14.37;100.00
54600;BME280;40500;51.084;16.958;2023-05-03T10:53:39;101381.94;;;14.31;99.55
54600;BME280;40500;51.084;16.958;2023-05-03T10:56:13;101380.61;;;14.01;99.19
54600;BME280;40500;51.084;16.958;2023-05-03T10:58:45;101379.26;;;13.85;99.92
54600;BME280;40500;51.084;16.958;2023-05-03T11:01:17;101381.72;;;13.59;98.69
54600;BME280;40500;51.084;16.958;2023-05-03T11:03:53;101379.79;;;13.43;100.00
54600;BME280;40500;51.084;16.958;2023-05-03T11:06:30;101380.60;;;13.50;100.00
54600;BME280;40500;51.084;16.958;2023-05-03T11:09:03;101380.60;;;13.63;100.00
54600;BME280;40500;51.084;16.958;2023-05-03T11:11:38;101379.83;;;13.69;100.00
54600;BME280;40500;51.084;16.958;2023-05-03T11:14:10;101379.52;;;13.78;100.00
54600;BME280;40500;51.084;16.958;2023-05-03T11:16:42;101373.27;;;13.97;100.00
54600;BME280;40500;51.084;16.958;2023-05-03T11:19:19;101372.26;;;14.19;100.00
54600;BME280;40500;51.084;16.958;2023-05-03T11:21:49;101372.15;;;14.47;100.00
54600;BME280;40500;51.084;16.958;2023-05-03T11:24:20;101374.13;;;14.68;100.00
54600;BME280;40500;51.084;16.958;2023-05-03T11:26:51;101372.00;;;14.88;100.00
54600;BME280;40500;51.084;16.958;2023-05-03T11:29:21;101366.89;;;15.17;100.00
54600;BME280;40500;51.084;16.958;2023-05-03T11:31:54;101366.96;;;15.30;99.94
54600;BME280;40500;51.084;16.958;2023-05-03T11:34:25;101367.89;;;15.28;99.22
54600;BME280;40500;51.084;16.958;2023-05-03T11:36:55;101372.69;;;15.18;97.83
54600;BME280;40500;51.084;16.958;2023-05-03T11:39:28;101370.01;;;15.10;98.72
54600;BME280;40500;51.084;16.958;2023-05-03T11:42:05;101376.40;;;14.99;93.34
54600;BME280;40500;51.084;16.958;2023-05-03T11:44:35;101377.80;;;14.90;94.29
54600;BME280;40500;51.084;16.958;2023-05-03T11:47:06;101374.23;;;14.91;94.90
54600;BME280;40500;51.084;16.958;2023-05-03T11:49:37;101371.98;;;14.99;94.07
54600;BME280;40500;51.084;16.958;2023-05-03T11:52:08;101370.37;;;15.09;93.74
54600;BME280;40500;51.084;16.958;2023-05-03T11:54:38;101368.13;;;15.25;94.07
54600;BME280;40500;51.084;16.958;2023-05-03T11:57:13;101365.86;;;15.50;95.54
54600;BME280;40500;51.084;16.958;2023-05-03T11:59:44;101363.52;;;15.78;95.13
54600;BME280;40500;51.084;16.958;2023-05-03T12:02:14;101368.63;;;15.95;94.69
54600;BME280;40500;51.084;16.958;2023-05-03T12:04:45;101366.31;;;16.19;94.70
54600;BME280;40500;51.084;16.958;2023-05-03T12:07:17;101371.48;;;16.24;88.95
54600;BME280;40500;51.084;16.958;2023-05-03T12:09:51;101364.12;;;16.29;89.48
54600;BME280;40500;51.084;16.958;2023-05-03T12:12:52;101361.82;;;17.04;87.96
54600;BME280;40500;51.084;16.958;2023-05-03T12:15:29;101359.02;;;18.18;81.48
54600;BME280;40500;51.084;16.958;2023-05-03T12:18:01;101354.06;;;20.48;75.20
54600;BME280;40500;51.084;16.958;2023-05-03T12:20:33;101342.67;;;22.36;64.01
54600;BME280;40500;51.084;16.958;2023-05-03T12:23:08;101337.20;;;24.54;63.46
54600;BME280;40500;51.084;16.958;2023-05-03T12:25:39;101326.73;;;26.74;60.79
54600;BME280;40500;51.084;16.958;2023-05-03T12:28:13;101326.20;;;28.44;56.55
54600;BME280;40500;51.084;16.958;2023-05-03T12:30:49;101321.19;;;29.57;44.01
54600;BME280;40500;51.084;16.958;2023-05-03T12:33:21;101322.30;;;30.69;50.83
54600;BME280;40500;51.084;16.958;2023-05-03T12:35:52;101319.94;;;32.19;47.32
54600;BME280;40500;51.084;16.958;2023-05-03T12:38:23;101311.08;;;33.09;38.44
54600;BME280;40500;51.084;16.958;2023-05-03T12:40:54;101313.27;;;33.76;39.18
54600;BME280;40500;51.084;16.958;2023-05-03T12:43:24;101311.49;;;34.67;35.65
54600;BME280;40500;51.084;16.958;2023-05-03T12:45:55;101307.06;;;35.59;35.67
54600;BME280;40500;51.084;16.958;2023-05-03T12:48:47;101296.35;;;36.90;34.82
54600;BME280;40500;51.084;16.958;2023-05-03T12:51:21;101288.34;;;38.05;33.35
54600;BME280;40500;51.084;16.958;2023-05-03T12:53:54;101286.33;;;39.14;31.45
54600;BME280;40500;51.084;16.958;2023-05-03T12:56:28;101276.52;;;39.92;29.44
54600;BME280;40500;51.084;16.958;2023-05-03T12:59:01;101281.13;;;40.57;29.79
54600;BME280;40500;51.084;16.958;2023-05-03T13:01:52;101278.58;;;40.80;26.72